Time;durP1;ratioP1;P1;durP2;ratioP2;P2;SDS_P1;SDS_P2;PMS_P1;PMS_P2;Temp;Humidity;BMP_temperature;BMP_pressure;BME280_temperature;BME280_humidity;BME280_pressure;Samples;Min_cycle;Max_cycle;Signal;HPM_P1;HPM_P2
2022/12/27 00:02:00;;;;;;;4.37;2.73;;;17.00;62.30;17.70;101447.00;;;;4990756;28;20195;-48
2022/12/27 00:04:25;;;;;;;8.17;3.17;;;17.00;62.30;17.40;101372.00;;;;4990965;28;20633;-49
2022/12/27 00:06:51;;;;;;;6.03;3.00;;;17.00;62.40;17.70;101457.00;;;;4974343;28;20308;-46
2022/12/27 00:09:17;;;;;;;5.57;3.00;;;17.00;62.50;17.60;101441.00;;;;4991179;28;20256;-46
2022/12/27 00:11:43;;;;;;;5.17;2.63;;;16.90;62.40;17.60;101361.00;;;;4990847;28;20204;-47
2022/12/27 00:14:09;;;;;;;6.70;2.80;;;16.90;62.40;17.60;101361.00;;;;4990738;28;20634;-46
2022/12/27 00:16:35;;;;;;;4.10;2.70;;;16.80;62.40;17.60;101459.00;;;;5008041;28;20554;-45
2022/12/27 00:19:01;;;;;;;3.63;2.70;;;16.90;62.50;17.60;101381.00;;;;5030633;28;20187;-45
2022/12/27 00:21:26;;;;;;;4.43;2.80;;;16.80;62.40;17.60;101459.00;;;;5013658;28;20649;-47
2022/12/27 00:23:54;;;;;;;3.33;2.83;;;16.80;63.00;17.60;101461.00;;;;5026821;28;20334;-46
2022/12/27 00:26:29;;;;;;;3.73;2.53;;;16.70;62.50;17.50;101467.00;;;;5043841;28;20181;-46
2022/12/27 00:28:55;;;;;;;6.17;2.73;;;16.80;62.70;17.50;101462.00;;;;5013715;28;20259;-47
2022/12/27 00:31:21;;;;;;;4.97;2.80;;;16.80;62.60;17.50;101380.00;;;;5029988;28;20739;-46
2022/12/27 00:33:49;;;;;;;3.67;2.50;;;16.80;62.70;17.50;101467.00;;;;5031074;28;20193;-48
2022/12/27 00:36:18;;;;;;;4.03;2.53;;;16.70;62.60;17.50;101458.00;;;;5013440;28;20176;-46
2022/12/27 00:38:43;;;;;;;4.13;2.90;;;16.70;62.60;17.40;101401.00;;;;5029407;28;20184;-47
2022/12/27 00:41:09;;;;;;;3.63;2.63;;;16.80;62.70;17.40;101402.00;;;;5013360;28;20175;-45
2022/12/27 00:43:35;;;;;;;4.07;2.80;;;16.80;62.70;17.40;101456.00;;;;5013062;28;20564;-47
2022/12/27 00:46:01;;;;;;;3.97;2.70;;;16.70;62.60;17.40;101371.00;;;;5029753;28;20202;-47
2022/12/27 00:48:27;;;;;;;3.70;2.50;;;16.70;62.60;17.40;101372.00;;;;5029469;28;20174;-47
2022/12/27 00:51:05;;;;;;;3.37;2.40;;;16.70;62.60;17.40;101469.00;;;;5029379;28;20270;-46
2022/12/27 00:53:31;;;;;;;3.50;2.60;;;16.70;62.70;17.40;101467.00;;;;5029394;28;20227;-47
2022/12/27 00:55:57;;;;;;;4.00;2.50;;;16.60;62.60;17.30;101467.00;;;;5029964;28;20180;-46
2022/12/27 00:58:23;;;;;;;3.40;2.50;;;16.60;62.60;17.30;101465.00;;;;5029642;28;20172;-48
2022/12/27 01:00:49;;;;;;;3.20;2.20;;;16.60;62.60;17.30;101467.00;;;;5029691;28;20496;-46
2022/12/27 01:03:15;;;;;;;3.70;2.60;;;16.60;62.60;17.30;101457.00;;;;5029579;28;20191;-46
2022/12/27 01:05:41;;;;;;;4.27;2.30;;;16.60;62.60;17.30;101456.00;;;;5029572;28;20233;-46
2022/12/27 01:08:07;;;;;;;4.87;2.60;;;16.60;62.60;17.30;101461.00;;;;5030518;28;20646;-47
2022/12/27 01:10:33;;;;;;;3.37;2.40;;;16.60;62.60;17.30;101466.00;;;;5012698;28;20657;-48
2022/12/27 01:13:02;;;;;;;3.37;2.60;;;16.60;62.50;17.30;101477.00;;;;5012777;28;20199;-48
2022/12/27 01:15:28;;;;;;;4.03;2.60;;;16.50;62.60;17.30;101379.00;;;;5029234;28;20170;-46
2022/12/27 01:17:53;;;;;;;2.87;2.40;;;16.60;62.60;17.30;101469.00;;;;5029254;28;20265;-47
2022/12/27 01:20:19;;;;;;;3.17;2.60;;;16.50;62.50;17.00;101405.00;;;;5029955;28;20164;-45
2022/12/27 01:22:45;;;;;;;3.20;2.30;;;16.50;62.40;17.30;101393.00;;;;5029671;28;20302;-47
2022/12/27 01:25:11;;;;;;;3.60;2.30;;;16.50;62.50;17.30;101477.00;;;;5029209;28;20551;-45
2022/12/27 01:27:36;;;;;;;3.50;2.50;;;16.50;62.50;17.30;101478.00;;;;5028998;28;20172;-46
2022/12/27 01:30:04;;;;;;;3.27;2.40;;;16.40;62.30;17.30;101410.00;;;;5030055;28;20179;-46
2022/12/27 01:32:32;;;;;;;2.47;2.10;;;16.50;62.60;17.30;101491.00;;;;4995742;28;20214;-47
2022/12/27 01:34:58;;;;;;;2.30;2.00;;;16.40;62.50;17.20;101489.00;;;;5028372;28;20259;-47
2022/12/27 01:37:25;;;;;;;3.30;2.30;;;16.40;62.50;17.20;101414.00;;;;5028759;28;20248;-46
2022/12/27 01:39:51;;;;;;;2.60;2.10;;;16.40;62.50;17.20;101412.00;;;;5012458;28;20179;-47
2022/12/27 01:45:03;;;;;;;2.93;2.10;;;16.40;62.50;17.20;101492.00;;;;5028470;28;20186;-47
2022/12/27 01:47:56;;;;;;;2.87;2.20;;;16.40;62.50;17.20;101489.00;;;;5012100;28;20301;-47
2022/12/27 01:50:48;;;;;;;3.00;2.30;;;16.30;62.30;16.90;101429.00;;;;5028520;28;20165;-46
2022/12/27 01:53:26;;;;;;;3.20;2.20;;;16.30;62.50;17.10;101502.00;;;;5033896;28;20231;-45
2022/12/27 01:56:14;;;;;;;3.67;2.37;;;16.30;62.60;17.20;101504.00;;;;5036229;28;20163;-45
2022/12/27 01:59:07;;;;;;;3.87;2.23;;;16.30;62.50;17.10;101427.00;;;;5036467;28;20235;-45
2022/12/27 02:01:38;;;;;;;2.83;2.10;;;16.30;62.60;17.10;101513.00;;;;5043084;28;20684;-46
2022/12/27 02:04:11;;;;;;;3.27;2.20;;;16.20;62.60;17.10;101510.00;;;;5028166;28;20160;-46
2022/12/27 02:06:37;;;;;;;2.40;2.00;;;16.20;62.70;17.10;101514.00;;;;5027783;28;20160;-46
2022/12/27 02:09:12;;;;;;;3.23;2.10;;;16.20;62.50;17.10;101434.00;;;;5028506;28;20175;-47
2022/12/27 02:11:50;;;;;;;2.50;2.10;;;16.20;62.70;17.10;101518.00;;;;5027827;28;20183;-46
2022/12/27 02:14:42;;;;;;;2.67;2.10;;;16.20;62.70;17.10;101520.00;;;;5013385;28;20239;-46
2022/12/27 02:17:12;;;;;;;2.47;2.00;;;16.20;62.70;17.00;101530.00;;;;5027726;28;20165;-46
2022/12/27 02:19:40;;;;;;;2.60;2.20;;;16.10;62.50;17.00;101526.00;;;;5028262;28;20271;-46
2022/12/27 02:22:24;;;;;;;3.00;2.00;;;16.10;62.50;17.00;101465.00;;;;5028760;28;20253;-45
2022/12/27 02:25:23;;;;;;;2.80;1.90;;;16.10;62.50;17.00;101444.00;;;;5028046;28;20155;-46
2022/12/27 02:28:45;;;;;;;2.00;1.87;;;16.10;62.50;17.00;101539.00;;;;5014337;28;20175;-46
2022/12/27 02:31:34;;;;;;;2.50;1.97;;;16.10;62.50;17.00;101462.00;;;;5023891;28;20192;-46
2022/12/27 02:34:02;;;;;;;2.10;1.90;;;16.00;62.60;17.00;101535.00;;;;5028283;28;20167;-46
2022/12/27 02:36:30;;;;;;;2.20;1.90;;;16.00;62.50;17.00;101438.00;;;;5027653;28;20303;-47
2022/12/27 02:38:57;;;;;;;1.90;1.80;;;16.00;62.60;17.00;101459.00;;;;5027777;28;20171;-47
2022/12/27 02:53:09;;;;;;;3.17;2.00;;;15.90;62.60;16.90;101529.00;;;;5027218;28;20213;-46
2022/12/27 02:59:08;;;;;;;2.03;1.90;;;15.90;62.70;16.80;101515.00;;;;5028609;28;20177;-47
2022/12/27 03:05:28;;;;;;;3.17;1.90;;;15.80;62.90;16.80;101441.00;;;;5027629;28;20167;-47
2022/12/27 03:08:10;;;;;;;2.20;1.90;;;15.80;62.90;16.50;101447.00;;;;5027486;28;20167;-46
2022/12/27 03:16:54;;;;;;;2.00;1.80;;;15.80;62.90;16.80;101538.00;;;;5029281;28;20253;-45
2022/12/27 03:25:29;;;;;;;2.93;2.00;;;15.70;62.70;16.70;101546.00;;;;5027588;28;20185;-48
2022/12/27 03:34:30;;;;;;;1.87;1.70;;;15.70;63.00;16.70;101550.00;;;;5027329;28;20170;-46
2022/12/27 03:39:33;;;;;;;1.97;1.80;;;15.70;62.80;16.70;101494.00;;;;5027364;28;20178;-45
2022/12/27 03:44:53;;;;;;;1.87;1.67;;;15.70;63.10;16.60;101544.00;;;;5027625;28;20198;-46
2022/12/27 03:47:45;;;;;;;1.77;1.63;;;15.60;62.90;16.60;101549.00;;;;5026759;28;20250;-48
2022/12/27 03:50:27;;;;;;;1.73;1.60;;;15.60;63.00;16.60;101557.00;;;;5026919;28;20198;-45
2022/12/27 03:53:08;;;;;;;1.83;1.63;;;15.60;63.00;16.60;101472.00;;;;5026381;28;20203;-46
2022/12/27 03:55:34;;;;;;;1.97;1.70;;;15.60;63.10;16.60;101557.00;;;;5026804;28;20186;-46
2022/12/27 03:58:00;;;;;;;2.03;1.80;;;15.60;63.00;16.60;101572.00;;;;5027047;28;20225;-46
2022/12/27 04:00:26;;;;;;;2.17;1.77;;;15.60;63.00;16.60;101577.00;;;;5031141;28;20175;-46
2022/12/27 04:02:51;;;;;;;2.30;1.77;;;15.60;63.00;16.60;101486.00;;;;5030378;28;20250;-47
2022/12/27 04:05:17;;;;;;;2.23;1.70;;;15.50;62.90;16.60;101563.00;;;;5013802;28;20179;-45
2022/12/27 04:35:05;;;;;;;11.93;2.40;;;15.50;63.40;16.40;101555.00;;;;5010070;28;20239;-46
2022/12/27 04:37:30;;;;;;;5.63;1.87;;;15.40;63.30;16.40;101538.00;;;;4977730;28;20184;-46
2022/12/27 04:56:27;;;;;;;3.87;1.90;;;15.30;62.80;16.30;101556.00;;;;5010962;28;20167;-47
2022/12/27 05:04:21;;;;;;;3.33;1.90;;;15.20;62.40;16.30;101566.00;;;;5011009;28;20591;-46
2022/12/27 05:06:47;;;;;;;3.03;2.07;;;15.20;62.40;16.20;101559.00;;;;5010863;28;20195;-47
2022/12/27 05:14:41;;;;;;;3.10;2.17;;;15.20;62.30;16.20;101592.00;;;;5010652;28;20221;-46
2022/12/27 05:17:07;;;;;;;3.40;2.00;;;15.20;62.30;16.20;101588.00;;;;4990067;28;20187;-45
2022/12/27 05:19:32;;;;;;;4.13;2.00;;;15.20;62.30;16.20;101591.00;;;;4993073;28;20200;-45
2022/12/27 05:27:27;;;;;;;4.10;2.10;;;15.20;62.30;16.10;101592.00;;;;5009744;28;20221;-46
2022/12/27 05:29:52;;;;;;;3.10;2.10;;;15.10;62.30;16.10;101599.00;;;;5010567;28;20183;-44
2022/12/27 05:32:18;;;;;;;6.13;2.17;;;15.10;62.20;16.10;101594.00;;;;5009439;28;20203;-47
2022/12/27 05:34:44;;;;;;;5.47;2.33;;;15.10;62.20;16.10;101599.00;;;;4993286;28;20168;-46
2022/12/27 05:37:09;;;;;;;6.47;2.20;;;15.00;62.00;16.10;101604.00;;;;5007870;28;20176;-47
2022/12/27 05:39:35;;;;;;;7.17;2.73;;;15.10;62.10;15.90;101615.00;;;;4993264;28;20244;-46
2022/12/27 05:42:02;;;;;;;4.63;2.23;;;15.10;62.20;16.10;101528.00;;;;4992764;28;20229;-46
2022/12/27 05:44:27;;;;;;;3.53;2.20;;;15.10;62.20;16.10;101606.00;;;;4993173;28;20210;-46
2022/12/27 05:46:54;;;;;;;7.63;2.37;;;15.10;62.10;16.10;101607.00;;;;5010021;28;20203;-45
2022/12/27 05:49:19;;;;;;;2.70;2.07;;;15.10;62.20;16.10;101565.00;;;;4993243;28;20182;-47
2022/12/27 05:51:45;;;;;;;4.30;1.80;;;15.00;62.00;16.10;101622.00;;;;4975654;28;20743;-47
2022/12/27 05:54:11;;;;;;;3.10;2.07;;;15.00;62.10;16.10;101616.00;;;;5009551;28;20167;-46
2022/12/27 05:56:37;;;;;;;3.80;2.00;;;15.00;62.00;16.10;101553.00;;;;4992836;28;20221;-46
2022/12/27 05:59:03;;;;;;;7.43;2.23;;;15.00;62.00;16.00;101604.00;;;;4994570;28;20201;-46
2022/12/27 06:01:29;;;;;;;4.97;2.00;;;15.00;62.10;16.00;101528.00;;;;4995596;28;20247;-46
2022/12/27 06:03:55;;;;;;;4.37;2.20;;;15.00;62.10;16.00;101623.00;;;;4960104;28;20173;-47
2022/12/27 06:06:20;;;;;;;4.40;2.20;;;15.00;62.00;16.00;101614.00;;;;4971849;28;20273;-46
2022/12/27 06:08:46;;;;;;;3.93;2.10;;;14.90;62.00;16.00;101630.00;;;;4973295;28;20183;-49
2022/12/27 06:11:14;;;;;;;2.73;2.00;;;14.90;62.10;16.00;101622.00;;;;4995721;28;20276;-46
2022/12/27 06:13:41;;;;;;;5.63;2.40;;;14.90;63.00;16.00;101592.00;;;;4979950;28;20217;-46
2022/12/27 06:16:09;;;;;;;5.07;2.10;;;14.90;62.20;16.00;101625.00;;;;4979018;28;20168;-46
2022/12/27 06:18:36;;;;;;;3.63;2.10;;;14.90;62.20;15.90;101629.00;;;;4975330;28;20243;-47
2022/12/27 06:21:11;;;;;;;2.87;1.90;;;14.90;62.20;15.90;101634.00;;;;4988382;28;20172;-46
2022/12/27 06:23:38;;;;;;;4.17;1.90;;;14.90;62.20;15.60;101552.00;;;;4956339;28;20707;-46
2022/12/27 06:26:16;;;;;;;3.30;2.10;;;14.90;62.30;15.90;101643.00;;;;4973460;28;20176;-46
2022/12/27 06:28:42;;;;;;;3.00;1.93;;;14.90;62.30;15.90;101629.00;;;;4956943;28;20226;-45
2022/12/27 06:31:08;;;;;;;3.10;2.10;;;14.90;62.30;15.90;101628.00;;;;4972435;28;20259;-45
2022/12/27 06:33:34;;;;;;;4.20;2.03;;;14.80;62.20;15.90;101634.00;;;;4972657;28;20377;-46
2022/12/27 06:36:08;;;;;;;2.37;1.90;;;14.80;62.20;15.90;101646.00;;;;4972678;28;20168;-45
2022/12/27 06:38:34;;;;;;;2.27;1.70;;;14.80;62.30;15.90;101555.00;;;;4972914;28;20160;-46
2022/12/27 06:41:08;;;;;;;2.20;2.00;;;14.80;62.20;15.90;101653.00;;;;4956805;28;20574;-46
2022/12/27 06:43:34;;;;;;;2.63;1.80;;;14.80;62.30;15.90;101628.00;;;;4974542;28;20286;-46
2022/12/27 06:46:02;;;;;;;2.17;1.70;;;14.80;62.20;15.80;101571.00;;;;4972396;28;20249;-47
2022/12/27 06:48:28;;;;;;;3.47;1.90;;;14.80;62.40;15.80;101655.00;;;;4957010;28;20263;-47
2022/12/27 06:50:54;;;;;;;3.07;1.80;;;14.70;63.00;15.80;101645.00;;;;4956309;28;20261;-47
2022/12/27 06:53:20;;;;;;;2.27;1.80;;;14.80;62.40;15.60;101556.00;;;;4972576;28;20212;-47
2022/12/27 06:55:45;;;;;;;2.57;1.60;;;14.70;62.30;15.80;101649.00;;;;4956717;28;20177;-47
2022/12/27 06:58:12;;;;;;;2.60;1.80;;;14.70;62.30;15.80;101654.00;;;;4971594;28;20303;-45
2022/12/27 07:00:39;;;;;;;2.03;1.80;;;14.70;62.40;15.80;101567.00;;;;4990753;28;20263;-45
2022/12/27 07:03:04;;;;;;;2.73;2.00;;;14.70;62.40;15.80;101659.00;;;;4973223;28;20242;-45
2022/12/27 07:05:30;;;;;;;3.07;1.90;;;14.70;62.40;15.80;101569.00;;;;4992018;28;20244;-46
2022/12/27 07:07:56;;;;;;;2.33;1.80;;;14.70;62.40;15.80;101659.00;;;;4991778;28;20321;-46
2022/12/27 07:10:22;;;;;;;1.57;1.47;;;14.70;62.40;15.80;101689.00;;;;5007943;28;20175;-45
2022/12/27 07:12:48;;;;;;;3.27;1.73;;;14.70;62.60;15.70;101658.00;;;;4991605;28;20195;-45
2022/12/27 07:15:14;;;;;;;3.47;2.13;;;14.80;63.10;15.80;101663.00;;;;5010039;28;20552;-45
2022/12/27 07:17:39;;;;;;;3.10;1.90;;;14.80;63.90;15.80;101667.00;;;;5007961;28;20174;-46
2022/12/27 07:20:06;;;;;;;4.10;2.03;;;14.90;65.20;15.80;101562.00;;;;5008254;28;20578;-46
2022/12/27 07:22:32;;;;;;;4.67;2.13;;;15.00;65.90;15.90;101686.00;;;;5006182;28;20703;-45
2022/12/27 07:24:58;;;;;;;10.17;2.17;;;15.10;66.00;15.90;101693.00;;;;5002995;28;20502;-46
2022/12/27 07:27:24;;;;;;;9.23;2.40;;;15.20;65.80;16.00;101680.00;;;;5023371;28;20178;-46
2022/12/27 07:29:50;;;;;;;7.10;2.30;;;15.40;65.70;16.10;101688.00;;;;5023383;28;20195;-46
2022/12/27 07:32:16;;;;;;;4.63;2.40;;;15.60;65.50;16.10;101697.00;;;;5006921;28;20281;-47
2022/12/27 07:34:41;;;;;;;10.37;2.10;;;15.70;64.90;16.20;101705.00;;;;4994805;28;20171;-48
2022/12/27 07:37:07;;;;;;;5.50;2.27;;;15.80;64.70;16.30;101682.00;;;;5011596;28;20664;-47
2022/12/27 07:39:33;;;;;;;4.60;2.00;;;16.00;64.30;16.40;101705.00;;;;5011630;28;20183;-46
2022/12/27 07:41:59;;;;;;;5.00;2.10;;;16.10;63.80;16.50;101615.00;;;;4994471;28;20192;-45
2022/12/27 07:44:24;;;;;;;4.37;1.90;;;16.30;63.50;16.60;101707.00;;;;4994962;28;20233;-46
2022/12/27 07:46:51;;;;;;;3.53;2.07;;;16.40;63.30;16.70;101712.00;;;;5011759;28;20225;-46
2022/12/27 07:49:16;;;;;;;3.93;2.10;;;16.50;63.10;16.90;101700.00;;;;5012899;28;20175;-46
2022/12/27 07:51:42;;;;;;;6.03;2.00;;;16.70;63.10;17.00;101698.00;;;;5012812;28;20201;-47
2022/12/27 07:54:08;;;;;;;23.27;3.20;;;16.80;63.90;17.00;101696.00;;;;5011496;28;20193;-46
2022/12/27 07:56:34;;;;;;;9.93;2.83;;;16.90;64.00;17.10;101705.00;;;;5011492;28;20187;-46
2022/12/27 07:59:00;;;;;;;15.27;2.90;;;17.00;64.00;17.20;101639.00;;;;5012726;28;20199;-47
2022/12/27 08:01:27;;;;;;;9.10;2.63;;;17.00;64.20;17.30;101716.00;;;;5006367;28;20167;-45
2022/12/27 08:03:53;;;;;;;8.00;2.20;;;17.10;64.00;17.40;101716.00;;;;5032340;28;20183;-47
2022/12/27 08:06:23;;;;;;;13.10;2.50;;;17.20;63.90;17.50;101712.00;;;;5032508;28;20535;-46
2022/12/27 08:08:49;;;;;;;11.03;2.73;;;17.40;64.00;17.60;101588.00;;;;5016942;28;20176;-47
2022/12/27 08:11:15;;;;;;;10.10;2.57;;;17.40;63.80;17.60;101720.00;;;;4994591;28;20709;-47
2022/12/27 08:13:40;;;;;;;11.10;2.70;;;17.40;63.90;17.70;101641.00;;;;5011261;28;20209;-46
2022/12/27 08:16:08;;;;;;;8.67;2.37;;;17.30;63.80;17.70;101727.00;;;;4994621;28;20183;-46
2022/12/27 08:18:33;;;;;;;11.20;2.73;;;17.30;63.80;17.70;101748.00;;;;5010935;28;20188;-47
2022/12/27 08:20:59;;;;;;;6.33;2.40;;;17.30;63.70;17.80;101735.00;;;;5009414;28;20182;-48
2022/12/27 08:23:25;;;;;;;8.23;2.50;;;17.30;63.50;17.80;101730.00;;;;5030879;28;20195;-47
2022/12/27 08:25:50;;;;;;;9.50;2.60;;;17.30;63.40;17.80;101723.00;;;;5013769;28;20556;-47
2022/12/27 08:28:17;;;;;;;9.27;2.50;;;17.30;63.50;17.80;101734.00;;;;5011464;28;20194;-48
2022/12/27 08:30:43;;;;;;;10.00;2.83;;;17.20;63.50;17.80;101737.00;;;;5007867;28;20243;-48
2022/12/27 08:33:10;;;;;;;9.03;2.63;;;17.20;63.50;17.80;101742.00;;;;4976813;28;20214;-46
2022/12/27 08:35:40;;;;;;;10.00;2.73;;;17.20;63.60;17.80;101739.00;;;;4996437;28;20329;-47
2022/12/27 08:38:05;;;;;;;7.20;2.80;;;17.20;63.70;17.80;101737.00;;;;4973864;28;20190;-47
2022/12/27 08:40:31;;;;;;;8.83;2.40;;;17.20;63.60;17.80;101738.00;;;;4973739;28;20627;-46
2022/12/27 08:42:58;;;;;;;9.83;2.70;;;17.20;63.70;17.80;101729.00;;;;4956857;28;20200;-47
2022/12/27 08:45:24;;;;;;;7.90;2.50;;;17.10;63.60;17.80;101736.00;;;;4956428;28;20520;-47
2022/12/27 08:47:49;;;;;;;5.80;2.10;;;17.10;63.50;17.80;101666.00;;;;4998237;28;20183;-46
2022/12/27 08:50:15;;;;;;;8.40;2.60;;;17.10;63.50;17.70;101589.00;;;;4967379;28;20177;-48
2022/12/27 08:52:41;;;;;;;4.70;2.10;;;17.10;63.50;17.70;101596.00;;;;4958636;28;20204;-47
2022/12/27 08:55:07;;;;;;;6.53;2.17;;;17.00;63.50;17.70;101655.00;;;;4976906;28;20183;-47
2022/12/27 08:57:33;;;;;;;5.00;2.30;;;17.00;63.60;17.70;101729.00;;;;4961728;28;20202;-47
2022/12/27 08:59:59;;;;;;;6.60;2.53;;;16.90;63.60;17.70;101738.00;;;;4975410;28;20650;-47
2022/12/27 09:02:25;;;;;;;6.53;2.13;;;16.90;63.70;17.70;101729.00;;;;4975260;28;20364;-47
2022/12/27 09:04:50;;;;;;;5.30;2.33;;;16.90;63.80;17.60;101731.00;;;;4975253;28;20642;-47
2022/12/27 09:07:16;;;;;;;6.80;2.20;;;16.90;63.90;17.60;101733.00;;;;4975612;28;20190;-46
2022/12/27 09:09:42;;;;;;;4.63;1.93;;;16.90;64.00;17.60;101685.00;;;;4992511;28;20173;-46
2022/12/27 09:12:08;;;;;;;3.20;2.03;;;16.80;63.90;17.60;101732.00;;;;4974266;28;20228;-48
2022/12/27 09:14:33;;;;;;;3.57;2.20;;;16.80;64.00;17.50;101745.00;;;;4975206;28;20683;-47
2022/12/27 09:16:59;;;;;;;5.20;2.20;;;16.80;64.00;17.50;101740.00;;;;4992318;28;20195;-47
2022/12/27 09:19:25;;;;;;;3.70;2.23;;;16.80;64.10;17.50;101661.00;;;;4991054;28;20623;-48
2022/12/27 09:21:50;;;;;;;2.60;2.00;;;16.70;63.90;17.50;101653.00;;;;4958493;28;20734;-48
2022/12/27 09:24:16;;;;;;;3.80;2.20;;;16.70;64.10;17.50;101750.00;;;;4958603;28;20205;-47
2022/12/27 09:26:42;;;;;;;5.90;2.17;;;16.70;64.10;17.40;101751.00;;;;4991790;28;20220;-46
2022/12/27 09:29:09;;;;;;;6.77;2.17;;;16.60;64.00;17.40;101750.00;;;;4991587;28;20169;-45
2022/12/27 09:31:34;;;;;;;2.73;2.10;;;16.60;64.10;17.40;101672.00;;;;4990260;28;20164;-47
2022/12/27 09:34:00;;;;;;;3.27;2.00;;;16.60;64.10;17.40;101752.00;;;;4989974;28;20208;-48
2022/12/27 09:36:28;;;;;;;2.70;1.77;;;16.60;64.10;17.40;101652.00;;;;4991904;28;20195;-47
2022/12/27 09:38:54;;;;;;;2.20;1.90;;;16.50;64.20;17.30;101750.00;;;;4970113;28;20270;-46
2022/12/27 09:42:04;;;;;;;2.77;1.90;;;16.50;64.20;17.30;101753.00;;;;5009230;28;20175;-46
2022/12/27 09:44:51;;;;;;;3.63;2.10;;;16.50;64.30;17.30;101761.00;;;;5010685;28;20891;-46
2022/12/27 09:47:39;;;;;;;4.53;2.00;;;16.50;64.40;17.30;101773.00;;;;5010093;28;20586;-47
2022/12/27 09:50:10;;;;;;;2.57;1.90;;;16.40;64.30;17.20;101771.00;;;;5009611;28;20590;-47
2022/12/27 09:53:16;;;;;;;3.10;1.83;;;16.40;64.50;17.20;101761.00;;;;5009106;28;20210;-45
2022/12/27 09:56:03;;;;;;;3.23;1.87;;;16.40;64.50;17.20;101753.00;;;;4998109;28;20181;-47
2022/12/27 09:58:49;;;;;;;2.77;1.90;;;16.40;64.50;17.10;101663.00;;;;4995700;28;20585;-48
2022/12/27 10:01:33;;;;;;;4.00;1.90;;;16.30;64.30;17.10;101746.00;;;;5009388;28;20232;-48
2022/12/27 10:03:59;;;;;;;3.23;2.07;;;16.30;64.50;17.10;101748.00;;;;4982637;28;20672;-48
2022/12/27 10:06:49;;;;;;;3.47;2.07;;;16.30;64.40;17.10;101746.00;;;;5009289;28;20177;-47
2022/12/27 10:09:33;;;;;;;2.40;1.90;;;16.30;64.60;17.10;101743.00;;;;5025383;28;20163;-47
2022/12/27 10:12:24;;;;;;;4.63;1.80;;;16.20;64.50;17.00;101751.00;;;;5008393;28;20202;-46
2022/12/27 10:15:10;;;;;;;3.57;1.97;;;16.20;64.50;17.00;101739.00;;;;5009046;28;20153;-47
2022/12/27 10:18:05;;;;;;;3.00;1.80;;;16.20;64.60;17.00;101754.00;;;;5007361;28;20684;-47
2022/12/27 10:20:50;;;;;;;3.10;2.00;;;16.20;64.70;17.00;101744.00;;;;5005645;28;20665;-47
2022/12/27 10:23:19;;;;;;;1.67;1.50;;;16.20;64.70;16.70;101753.00;;;;5026758;28;20200;-46
2022/12/27 10:25:45;;;;;;;2.33;1.80;;;16.10;64.70;16.90;101738.00;;;;5008992;28;20167;-46
2022/12/27 10:28:18;;;;;;;2.27;1.77;;;16.10;65.40;16.90;101675.00;;;;4997359;28;20188;-47
2022/12/27 10:30:44;;;;;;;2.00;1.80;;;16.10;64.80;16.90;101748.00;;;;5017220;28;20259;-47
2022/12/27 10:33:19;;;;;;;4.03;1.70;;;16.10;64.70;16.90;101662.00;;;;4999811;28;20306;-47
2022/12/27 10:35:47;;;;;;;2.33;1.70;;;16.10;64.80;16.90;101746.00;;;;5010285;28;20155;-47
2022/12/27 10:38:13;;;;;;;2.50;1.70;;;16.10;64.80;16.90;101671.00;;;;5008728;28;20195;-48
2022/12/27 10:41:04;;;;;;;2.17;1.63;;;16.00;64.60;16.90;101743.00;;;;5009505;28;20164;-47
2022/12/27 10:43:35;;;;;;;1.93;1.60;;;16.00;64.80;16.90;101743.00;;;;4992577;28;20695;-46
2022/12/27 10:46:15;;;;;;;2.77;1.83;;;16.10;65.40;16.90;101670.00;;;;4992865;28;20730;-47
2022/12/27 10:48:54;;;;;;;2.37;1.80;;;16.00;64.90;16.80;101740.00;;;;5009091;28;20163;-48
2022/12/27 10:51:22;;;;;;;2.27;1.83;;;16.00;65.00;16.80;101751.00;;;;5007640;28;20156;-47
2022/12/27 10:53:47;;;;;;;2.10;1.83;;;16.00;64.70;16.80;101747.00;;;;5008959;28;20192;-46
2022/12/27 10:56:35;;;;;;;1.83;1.70;;;16.00;64.90;16.80;101765.00;;;;5009227;28;20257;-47
2022/12/27 10:59:17;;;;;;;2.47;1.70;;;15.90;64.90;16.80;101750.00;;;;5010284;28;20162;-47
2022/12/27 11:02:03;;;;;;;1.83;1.53;;;15.90;64.90;16.80;101734.00;;;;5008728;28;20191;-47
2022/12/27 11:04:29;;;;;;;2.87;1.70;;;15.90;65.00;16.80;101656.00;;;;5005302;28;20246;-47
2022/12/27 11:07:01;;;;;;;2.53;1.63;;;15.90;64.90;16.80;101676.00;;;;5009029;28;20255;-47
2022/12/27 11:09:40;;;;;;;1.83;1.60;;;15.90;64.90;16.40;101675.00;;;;5012193;28;20185;-47
2022/12/27 11:12:23;;;;;;;2.03;1.50;;;15.90;64.90;16.70;101748.00;;;;4996234;28;20202;-47
2022/12/27 11:15:12;;;;;;;2.53;1.70;;;15.80;64.90;16.70;101747.00;;;;4997123;28;20167;-48
2022/12/27 11:17:48;;;;;;;2.00;1.70;;;15.80;64.90;16.70;101750.00;;;;5014090;28;20644;-48
2022/12/27 11:20:26;;;;;;;1.87;1.70;;;15.80;64.90;16.70;101749.00;;;;4996716;28;20621;-45
2022/12/27 11:23:09;;;;;;;2.47;1.83;;;15.80;64.90;16.70;101654.00;;;;4995586;28;20744;-47
2022/12/27 11:25:36;;;;;;;1.87;1.73;;;15.80;64.90;16.70;101662.00;;;;5012802;28;20176;-46
2022/12/27 11:28:04;;;;;;;1.70;1.50;;;15.80;65.00;16.70;101748.00;;;;4997085;28;20600;-47
2022/12/27 11:30:39;;;;;;;11.90;2.40;;;15.90;65.00;16.60;101743.00;;;;5012291;28;20178;-47
2022/12/27 11:33:38;;;;;;;6.17;2.00;;;15.80;64.90;16.70;101749.00;;;;5012923;28;20196;-47
2022/12/27 11:36:06;;;;;;;3.13;1.57;;;15.80;64.90;16.60;101745.00;;;;5011608;28;20159;-46
2022/12/27 11:38:33;;;;;;;4.17;2.20;;;15.80;64.90;16.70;101690.00;;;;4997345;28;20173;-47
2022/12/27 11:41:10;;;;;;;5.30;1.90;;;15.90;64.90;16.70;101741.00;;;;4972580;28;20265;-47
2022/12/27 11:44:00;;;;;;;3.80;1.87;;;16.00;64.90;16.70;101658.00;;;;4990105;28;20226;-46
2022/12/27 11:46:55;;;;;;;6.40;2.00;;;16.10;64.90;16.80;101750.00;;;;4993559;28;20587;-47
2022/12/27 11:49:25;;;;;;;3.23;1.77;;;16.20;64.60;16.60;101749.00;;;;5008839;28;20255;-47
2022/12/27 11:52:44;;;;;;;4.33;1.60;;;16.40;64.60;16.90;101738.00;;;;4975527;28;20254;-46
2022/12/27 11:55:37;;;;;;;4.63;1.90;;;16.50;64.50;17.00;101670.00;;;;5003585;28;20198;-48
2022/12/27 11:58:43;;;;;;;2.53;1.77;;;16.60;63.90;17.10;101744.00;;;;4992313;28;20705;-46
2022/12/27 12:01:30;;;;;;;3.40;1.77;;;16.70;63.90;17.20;101737.00;;;;4991477;28;20619;-46
2022/12/27 12:04:48;;;;;;;6.30;1.60;;;16.80;63.70;17.30;101740.00;;;;4991276;28;20235;-45
2022/12/27 12:08:01;;;;;;;5.07;1.70;;;16.80;63.60;17.30;101729.00;;;;4993951;28;20180;-46
2022/12/27 12:10:42;;;;;;;4.23;1.80;;;16.90;63.50;17.30;101720.00;;;;4992318;28;20183;-46
2022/12/27 12:13:34;;;;;;;5.67;1.73;;;17.00;63.50;17.40;101636.00;;;;4992480;28;20842;-47
2022/12/27 12:16:25;;;;;;;7.10;1.90;;;17.00;63.80;17.40;101716.00;;;;4992726;28;20187;-49
2022/12/27 12:19:12;;;;;;;7.70;1.90;;;17.00;64.40;17.50;101711.00;;;;4991871;28;20185;-47
2022/12/27 12:21:59;;;;;;;4.67;1.80;;;17.00;64.40;17.50;101709.00;;;;4991003;28;20212;-47
2022/12/27 12:25:02;;;;;;;6.53;1.87;;;17.00;64.70;17.50;101632.00;;;;5004565;28;20246;-48
2022/12/27 12:27:42;;;;;;;4.30;1.57;;;17.00;64.30;17.50;101710.00;;;;4975197;28;20328;-45
2022/12/27 12:30:41;;;;;;;3.00;1.77;;;17.00;64.50;17.50;101701.00;;;;4994770;28;20188;-47
2022/12/27 12:33:53;;;;;;;5.27;1.60;;;16.90;64.60;17.50;101700.00;;;;5009838;28;20203;-47
2022/12/27 12:36:51;;;;;;;5.73;1.67;;;16.90;64.60;17.60;101712.00;;;;5006082;28;20190;-46
2022/12/27 12:39:57;;;;;;;2.70;1.67;;;17.10;64.60;17.60;101698.00;;;;4998067;28;20278;-46
2022/12/27 12:42:34;;;;;;;6.70;1.60;;;17.00;64.30;17.60;101695.00;;;;4995728;28;20204;-46
2022/12/27 12:45:17;;;;;;;2.97;1.77;;;17.10;64.30;17.70;101623.00;;;;5010055;28;20180;-46
2022/12/27 12:48:33;;;;;;;5.50;1.90;;;17.10;64.30;17.70;101696.00;;;;4995911;28;20262;-45
2022/12/27 12:51:51;;;;;;;6.17;1.77;;;17.10;64.10;17.70;101694.00;;;;4992779;28;20175;-45
2022/12/27 12:55:02;;;;;;;2.43;1.70;;;17.10;64.10;17.70;101688.00;;;;5008524;28;20196;-46
2022/12/27 12:57:44;;;;;;;3.10;1.50;;;17.10;64.10;17.40;101588.00;;;;4992168;28;20177;-46
2022/12/27 13:00:36;;;;;;;3.77;1.40;;;17.10;64.10;17.70;101681.00;;;;5009977;28;20247;-46